createdAt,value
2022-11-05T00:01:03.875Z,95043.03
2022-11-05T00:04:06.042Z,95049.59
2022-11-05T00:07:13.142Z,95054.59
2022-11-05T00:10:19.179Z,95056.91
2022-11-05T00:13:21.237Z,95046.09
2022-11-05T00:16:24.510Z,95045.03
2022-11-05T00:19:26.412Z,95039.91
2022-11-05T00:22:28.457Z,95044.09
2022-11-05T00:25:30.465Z,95046.22
2022-11-05T00:28:33.036Z,95052.72
2022-11-05T00:31:36.325Z,95057.34
2022-11-05T00:34:38.335Z,95055.09
2022-11-05T00:37:42.381Z,95067.03
2022-11-05T00:40:47.609Z,95069.84
2022-11-05T00:43:49.511Z,95078.97
2022-11-05T00:46:57.208Z,95083.66
2022-11-05T00:50:01.623Z,95082.22
2022-11-05T00:53:03.991Z,95085.63
2022-11-05T00:56:06.357Z,95088.66
2022-11-05T00:59:08.223Z,95089.41
2022-11-05T01:02:11.627Z,95088.72
2022-11-05T01:05:13.755Z,95085.66
2022-11-05T01:08:19.144Z,95089.91
2022-11-05T01:11:21.110Z,95090.72
2022-11-05T01:14:23.031Z,95094.19
2022-11-05T01:17:26.323Z,95088.00
2022-11-05T01:20:28.235Z,95085.72
2022-11-05T01:23:30.118Z,95074.44
2022-11-05T01:26:32.056Z,95072.94
2022-11-05T01:29:34.100Z,95067.94
2022-11-05T01:32:38.184Z,95073.66
2022-11-05T01:35:40.054Z,95077.41
2022-11-05T01:38:42.094Z,95081.59
2022-11-05T01:41:44.020Z,95086.91
2022-11-05T01:44:54.680Z,95085.31
2022-11-05T01:48:06.812Z,95079.66
2022-11-05T01:51:14.043Z,95091.94
2022-11-05T01:54:20.397Z,95100.72
2022-11-05T01:57:22.424Z,95105.28
2022-11-05T02:00:24.820Z,95117.63
2022-11-05T02:03:29.012Z,95126.72
2022-11-05T02:06:34.875Z,95127.84
2022-11-05T02:09:44.389Z,95140.56
2022-11-05T02:12:47.536Z,95145.91
2022-11-05T02:16:00.391Z,95146.63
2022-11-05T02:19:22.347Z,95138.00
2022-11-05T02:22:50.905Z,95139.53
2022-11-05T02:26:31.749Z,95155.22
2022-11-05T02:30:19.962Z,95154.84
2022-11-05T02:33:42.171Z,95151.00
2022-11-05T02:36:50.290Z,95144.41
2022-11-05T02:40:01.375Z,95145.25
2022-11-05T02:43:13.554Z,95159.78
2022-11-05T02:46:30.502Z,95167.84
2022-11-05T02:49:44.454Z,95157.53
2022-11-05T02:52:58.949Z,95148.66
2022-11-05T02:56:05.646Z,95152.53
2022-11-05T02:59:07.559Z,95156.69
2022-11-05T03:02:11.108Z,95151.75
2022-11-05T03:05:13.241Z,95160.44
2022-11-05T03:08:22.682Z,95167.78
2022-11-05T03:11:28.687Z,95168.22
2022-11-05T03:14:43.822Z,95176.69
2022-11-05T03:17:59.102Z,95175.06
2022-11-05T03:21:05.133Z,95188.16
2022-11-05T03:24:13.741Z,95192.28
2022-11-05T03:27:18.867Z,95199.53
2022-11-05T03:30:21.198Z,95200.03
2022-11-05T03:33:27.816Z,95189.72
2022-11-05T03:36:33.278Z,95189.66
2022-11-05T03:39:39.088Z,95197.75
2022-11-05T03:42:45.181Z,95198.94
2022-11-05T03:45:56.410Z,95195.97
2022-11-05T03:49:02.862Z,95199.00
2022-11-05T03:52:09.586Z,95205.91
2022-11-05T03:55:11.762Z,95216.69
2022-11-05T03:58:15.532Z,95212.41
2022-11-05T04:01:18.128Z,95207.09
2022-11-05T04:04:21.605Z,95209.72
2022-11-05T04:07:23.504Z,95204.16
2022-11-05T04:10:25.442Z,95198.19
2022-11-05T04:13:27.547Z,95208.97
2022-11-05T04:16:29.447Z,95213.63
2022-11-05T04:19:32.812Z,95220.50
2022-11-05T04:22:35.744Z,95216.31
2022-11-05T04:25:37.734Z,95221.25
2022-11-05T04:28:39.572Z,95229.25
2022-11-05T04:31:41.525Z,95231.97
2022-11-05T04:34:44.796Z,95238.88
2022-11-05T04:37:46.973Z,95238.53
2022-11-05T04:40:48.827Z,95240.06
2022-11-05T04:43:51.283Z,95231.31
2022-11-05T04:46:53.136Z,95241.22
2022-11-05T04:49:56.435Z,95228.16
2022-11-05T04:52:58.828Z,95232.69
2022-11-05T04:56:09.977Z,95233.53
2022-11-05T04:59:11.828Z,95241.56
2022-11-05T05:02:13.828Z,95235.72
2022-11-05T05:05:17.429Z,95241.16
2022-11-05T05:08:19.396Z,95238.16
2022-11-05T05:11:22.237Z,95234.72
2022-11-05T05:14:24.120Z,95235.31
2022-11-05T05:17:26.060Z,95241.97
2022-11-05T05:20:29.332Z,95234.41
2022-11-05T05:23:31.215Z,95236.81
2022-11-05T05:26:33.120Z,95240.63
2022-11-05T05:29:35.122Z,95245.34
2022-11-05T05:32:37.006Z,95239.59
2022-11-05T05:35:40.269Z,95252.59
2022-11-05T05:38:42.231Z,95252.94
2022-11-05T05:41:44.217Z,95254.63
2022-11-05T05:44:46.135Z,95258.44
2022-11-05T05:47:48.125Z,95265.56
2022-11-05T05:50:51.507Z,95279.69
2022-11-05T05:53:53.423Z,95277.19
2022-11-05T05:56:55.407Z,95286.66
2022-11-05T05:59:57.309Z,95284.25
2022-11-05T06:02:59.365Z,95297.66
2022-11-05T06:06:05.301Z,95305.13
2022-11-05T06:09:07.319Z,95313.06
2022-11-05T06:12:09.217Z,95316.94
2022-11-05T06:15:11.243Z,95320.72
2022-11-05T06:18:13.174Z,95316.50
2022-11-05T06:21:18.074Z,95324.03
2022-11-05T06:24:19.906Z,95335.94
2022-11-05T06:27:21.795Z,95325.03
2022-11-05T06:30:23.678Z,95338.88
2022-11-05T06:33:25.805Z,95343.88
2022-11-05T06:36:29.096Z,95348.97
2022-11-05T06:39:31.007Z,95353.84
2022-11-05T06:42:32.941Z,95371.84
2022-11-05T06:45:34.810Z,95380.56
2022-11-05T06:48:36.812Z,95376.34
2022-11-05T06:51:40.148Z,95383.31
2022-11-05T06:54:42.714Z,95387.75
2022-11-05T06:57:44.580Z,95385.50
2022-11-05T07:00:47.391Z,95387.75
2022-11-05T07:03:49.402Z,95393.19
2022-11-05T07:06:52.781Z,95401.38
2022-11-05T07:09:54.786Z,95395.66
2022-11-05T07:12:56.758Z,95408.78
2022-11-05T07:15:58.722Z,95407.03
2022-11-05T07:19:00.612Z,95417.56
2022-11-05T07:22:03.873Z,95422.56
2022-11-05T07:25:06.911Z,95414.50
2022-11-05T07:28:09.805Z,95423.91
2022-11-05T07:31:11.726Z,95433.84
2022-11-05T07:34:13.560Z,95428.03
2022-11-05T07:37:16.840Z,95433.91
2022-11-05T07:40:19.075Z,95429.66
2022-11-05T07:43:21.042Z,95433.56
2022-11-05T07:46:22.922Z,95433.06
2022-11-05T07:49:25.061Z,95442.19
2022-11-05T07:52:28.399Z,95441.38
2022-11-05T07:55:30.722Z,95452.47
2022-11-05T07:58:32.686Z,95456.34
2022-11-05T08:01:34.657Z,95460.59
2022-11-05T08:04:36.653Z,95459.91
2022-11-05T08:07:39.904Z,95457.91
2022-11-05T08:10:42.170Z,95458.84
2022-11-05T08:13:44.095Z,95460.72
2022-11-05T08:16:46.071Z,95458.41
2022-11-05T08:19:48.009Z,95460.59
2022-11-05T08:22:51.232Z,95465.75
2022-11-05T08:25:53.311Z,95466.94
2022-11-05T08:28:55.270Z,95470.91
2022-11-05T08:31:57.096Z,95479.63
2022-11-05T08:34:59.107Z,95480.78
2022-11-05T08:38:04.629Z,95481.19
2022-11-05T08:41:06.647Z,95479.75
2022-11-05T08:44:08.709Z,95473.59
2022-11-05T08:47:10.624Z,95466.41
2022-11-05T08:50:12.526Z,95472.25
2022-11-05T08:53:16.210Z,95461.22
2022-11-05T08:56:18.307Z,95463.53
2022-11-05T08:59:20.227Z,95460.91
2022-11-05T09:02:22.308Z,95467.22
2022-11-05T09:05:24.284Z,95472.34
2022-11-05T09:08:27.780Z,95472.03
2022-11-05T09:11:56.915Z,95470.16
2022-11-05T09:14:52.030Z,95468.72
2022-11-05T09:17:54.828Z,95472.59
2022-11-05T09:20:57.028Z,95483.28
2022-11-05T09:24:00.456Z,95493.91
2022-11-05T09:27:02.365Z,95496.69
2022-11-05T09:30:05.505Z,95508.63
2022-11-05T09:33:07.600Z,95510.91
2022-11-05T09:36:09.676Z,95513.31
2022-11-05T09:39:13.041Z,95513.03
2022-11-05T09:42:20.439Z,95516.03
2022-11-05T09:45:24.952Z,95520.81
2022-11-05T09:48:30.987Z,95519.59
2022-11-05T09:51:33.726Z,95515.03
2022-11-05T09:54:37.728Z,95514.63
2022-11-05T09:57:45.809Z,95518.50
2022-11-05T10:00:49.162Z,95526.03
2022-11-05T10:03:54.793Z,95525.19
2022-11-05T10:06:59.894Z,95529.00
2022-11-05T10:10:08.625Z,95519.81
2022-11-05T10:13:20.671Z,95515.34
2022-11-05T10:16:26.225Z,95521.56
2022-11-05T10:19:42.796Z,95515.75
2022-11-05T10:22:49.294Z,95524.31
2022-11-05T10:25:57.967Z,95517.91
2022-11-05T10:29:00.476Z,95516.59
2022-11-05T10:32:05.852Z,95524.25
2022-11-05T10:35:14.107Z,95530.66
2022-11-05T10:38:16.066Z,95523.78
2022-11-05T10:41:37.875Z,95533.50
2022-11-05T10:44:45.164Z,95524.97
2022-11-05T10:47:56.756Z,95532.91
2022-11-05T10:50:59.269Z,95527.91
2022-11-05T10:54:05.430Z,95539.09
2022-11-05T10:57:28.279Z,95536.47
2022-11-05T11:00:30.630Z,95539.34
2022-11-05T11:03:37.612Z,95537.22
2022-11-05T11:06:47.461Z,95531.41
2022-11-05T11:09:50.540Z,95534.78
2022-11-05T11:12:55.231Z,95549.38
2022-11-05T11:16:14.669Z,95540.53
2022-11-05T11:19:37.179Z,95548.34
2022-11-05T11:22:39.065Z,95550.16
2022-11-05T11:25:47.044Z,95542.53
2022-11-05T11:28:56.986Z,95546.38
2022-11-05T11:31:59.988Z,95548.03
2022-11-05T11:35:02.814Z,95546.78
2022-11-05T11:38:06.912Z,95552.28
2022-11-05T11:41:23.901Z,95564.34
2022-11-05T11:44:30.407Z,95559.47
2022-11-05T11:47:33.434Z,95565.59
2022-11-05T11:50:39.503Z,95567.56
2022-11-05T11:53:41.466Z,95573.31
2022-11-05T11:56:45.096Z,95563.59
2022-11-05T12:00:07.610Z,95574.75
2022-11-05T12:03:26.470Z,95573.03
2022-11-05T12:06:35.454Z,95564.25
2022-11-05T12:09:52.743Z,95567.56
2022-11-05T12:13:21.713Z,95580.72
2022-11-05T12:17:00.482Z,95581.75
2022-11-05T12:20:26.173Z,95587.72
2022-11-05T12:23:47.104Z,95577.41
2022-11-05T12:27:00.002Z,95572.63
2022-11-05T12:30:05.996Z,95579.25
2022-11-05T12:33:23.785Z,95581.53
2022-11-05T12:36:40.403Z,95576.50
2022-11-05T12:40:01.194Z,95576.81
2022-11-05T12:43:12.312Z,95577.13
2022-11-05T12:46:26.342Z,95577.06
2022-11-05T12:49:50.146Z,95578.44
2022-11-05T12:53:23.435Z,95570.72
2022-11-05T12:56:34.209Z,95566.00
2022-11-05T12:59:40.999Z,95566.16
2022-11-05T13:02:50.201Z,95567.78
2022-11-05T13:05:55.545Z,95569.88
2022-11-05T13:09:03.275Z,95581.56
2022-11-05T13:12:11.858Z,95589.22
2022-11-05T13:15:24.757Z,95586.16
2022-11-05T13:18:31.599Z,95582.16
2022-11-05T13:21:36.228Z,95579.97
2022-11-05T13:24:41.287Z,95579.28
2022-11-05T13:27:58.635Z,95585.03
2022-11-05T13:31:04.017Z,95587.19
2022-11-05T13:34:10.716Z,95587.75
2022-11-05T13:37:26.476Z,95583.06
2022-11-05T13:40:39.686Z,95591.22
2022-11-05T13:44:03.300Z,95594.31
2022-11-05T13:47:30.823Z,95594.34
2022-11-05T13:51:06.854Z,95596.66
2022-11-05T13:54:34.236Z,95598.13
2022-11-05T13:57:55.001Z,95597.97
2022-11-05T14:01:07.938Z,95608.78
2022-11-05T14:04:20.278Z,95611.06
2022-11-05T14:07:25.477Z,95620.41
2022-11-05T14:10:36.701Z,95619.41
2022-11-05T14:13:41.508Z,95616.66
2022-11-05T14:16:50.683Z,95616.66
2022-11-05T14:20:09.897Z,95618.13
2022-11-05T14:23:38.037Z,95611.59
2022-11-05T14:26:41.263Z,95601.56
2022-11-05T14:29:45.049Z,95614.28
2022-11-05T14:32:47.467Z,95617.00
2022-11-05T14:35:49.818Z,95616.66
2022-11-05T14:39:01.377Z,95617.09
2022-11-05T14:42:16.118Z,95624.69
2022-11-05T14:45:29.129Z,95633.03
2022-11-05T14:48:38.071Z,95621.47
2022-11-05T14:51:44.389Z,95625.03
2022-11-05T14:54:50.555Z,95625.41
2022-11-05T14:58:23.898Z,95641.59
2022-11-05T15:01:55.180Z,95642.59
2022-11-05T15:05:34.387Z,95646.16
2022-11-05T15:08:39.003Z,95654.19
2022-11-05T15:11:45.785Z,95660.47
2022-11-05T15:14:57.332Z,95666.53
2022-11-05T15:18:04.372Z,95672.16
2022-11-05T15:21:10.784Z,95674.09
2022-11-05T15:24:16.420Z,95670.97
2022-11-05T15:27:27.001Z,95673.31
2022-11-05T15:30:30.692Z,95667.09
2022-11-05T15:33:33.581Z,95667.09
2022-11-05T15:36:35.590Z,95673.41
2022-11-05T15:39:40.680Z,95676.56
2022-11-05T15:42:42.561Z,95673.88
2022-11-05T15:45:58.166Z,95671.03
2022-11-05T15:49:06.561Z,95670.69
2022-11-05T15:52:12.897Z,95677.47
2022-11-05T15:55:20.118Z,95672.91
2022-11-05T15:58:22.803Z,95682.59
2022-11-05T16:01:29.292Z,95686.91
2022-11-05T16:04:34.220Z,95691.56
2022-11-05T16:07:37.066Z,95692.41
2022-11-05T16:10:39.789Z,95703.94
2022-11-05T16:13:42.244Z,95695.50
2022-11-05T16:16:46.520Z,95702.91
2022-11-05T16:19:49.551Z,95702.56
2022-11-05T16:22:53.802Z,95706.09
2022-11-05T16:25:56.482Z,95704.91
2022-11-05T16:29:00.892Z,95703.28
2022-11-05T16:32:07.725Z,95706.47
2022-11-05T16:35:19.536Z,95708.03
2022-11-05T16:38:22.834Z,95708.75
2022-11-05T16:41:26.893Z,95705.09
2022-11-05T16:44:29.416Z,95705.31
2022-11-05T16:47:33.176Z,95707.63
2022-11-05T16:50:36.708Z,95719.13
2022-11-05T16:53:39.333Z,95715.31
2022-11-05T16:56:41.504Z,95727.69
2022-11-05T16:59:44.600Z,95727.31
2022-11-05T17:02:50.217Z,95738.44
2022-11-05T17:05:52.882Z,95732.66
2022-11-05T17:08:55.339Z,95725.06
2022-11-05T17:11:58.190Z,95732.41
2022-11-05T17:15:00.873Z,95745.03
2022-11-05T17:18:05.816Z,95748.13
2022-11-05T17:21:09.654Z,95756.38
2022-11-05T17:24:12.000Z,95751.84
2022-11-05T17:27:14.717Z,95749.59
2022-11-05T17:30:17.743Z,95761.03
2022-11-05T17:33:23.263Z,95752.91
2022-11-05T17:36:26.184Z,95763.69
2022-11-05T17:39:31.585Z,95757.16
2022-11-05T17:42:34.748Z,95766.63
2022-11-05T17:45:42.268Z,95770.06
2022-11-05T17:48:46.484Z,95778.06
2022-11-05T17:51:48.791Z,95783.50
2022-11-05T17:54:51.623Z,95788.47
2022-11-05T17:57:56.292Z,95782.72
2022-11-05T18:00:59.127Z,95782.72
2022-11-05T18:04:08.710Z,95804.41
2022-11-05T18:07:13.097Z,95804.41
2022-11-05T18:10:18.246Z,95807.66
2022-11-05T18:13:21.079Z,95812.16
2022-11-05T18:16:27.423Z,95809.03
2022-11-05T18:19:32.244Z,95815.97
2022-11-05T18:22:35.231Z,95807.00
2022-11-05T18:25:40.610Z,95829.72
2022-11-05T18:28:44.277Z,95815.91
2022-11-05T18:31:46.539Z,95823.13
2022-11-05T18:34:52.971Z,95820.09
2022-11-05T18:37:56.118Z,95823.03
2022-11-05T18:40:59.108Z,95833.31
2022-11-05T18:44:02.579Z,95822.63
2022-11-05T18:47:05.369Z,95819.44
2022-11-05T18:50:12.271Z,95829.25
2022-11-05T18:53:15.447Z,95822.06
2022-11-05T18:56:19.360Z,95832.38
2022-11-05T18:59:36.683Z,95825.16
2022-11-05T19:02:41.754Z,95823.34
2022-11-05T19:05:46.801Z,95837.97
2022-11-05T19:08:49.811Z,95828.00
2022-11-05T19:11:52.296Z,95838.09
2022-11-05T19:15:00.913Z,95832.03
2022-11-05T19:18:05.261Z,95839.84
2022-11-05T19:21:12.440Z,95837.47
2022-11-05T19:24:18.038Z,95836.34
2022-11-05T19:27:20.759Z,95834.53
2022-11-05T19:30:23.331Z,95839.41
2022-11-05T19:33:26.458Z,95841.31
2022-11-05T19:36:33.701Z,95839.47
2022-11-05T19:39:36.837Z,95842.34
2022-11-05T19:42:40.688Z,95846.97
2022-11-05T19:45:45.046Z,95844.97
2022-11-05T19:48:48.475Z,95844.47
2022-11-05T19:51:58.787Z,95849.34
2022-11-05T19:55:04.535Z,95842.69
2022-11-05T19:58:11.584Z,95840.09
2022-11-05T20:01:15.471Z,95849.13
2022-11-05T20:04:18.067Z,95856.13
2022-11-05T20:07:22.023Z,95849.00
2022-11-05T20:10:24.836Z,95859.03
2022-11-05T20:13:28.621Z,95851.06
2022-11-05T20:16:34.124Z,95853.25
2022-11-05T20:19:37.164Z,95850.72
2022-11-05T20:22:41.744Z,95849.34
2022-11-05T20:25:44.868Z,95843.97
2022-11-05T20:28:47.529Z,95852.19
2022-11-05T20:31:51.921Z,95854.44
2022-11-05T20:34:55.935Z,95859.63
2022-11-05T20:38:00.126Z,95857.97
2022-11-05T20:41:09.853Z,95864.66
2022-11-05T20:44:12.219Z,95866.91
2022-11-05T20:47:14.832Z,95873.56
2022-11-05T20:50:17.465Z,95873.41
2022-11-05T20:53:22.774Z,95867.19
2022-11-05T20:56:27.305Z,95867.09
2022-11-05T20:59:30.091Z,95866.91
2022-11-05T21:02:32.794Z,95863.47
2022-11-05T21:05:36.445Z,95873.50
2022-11-05T21:08:41.199Z,95874.91
2022-11-05T21:11:43.932Z,95873.41
2022-11-05T21:14:47.731Z,95882.59
2022-11-05T21:17:50.367Z,95874.09
2022-11-05T21:20:53.598Z,95877.50
2022-11-05T21:23:58.023Z,95877.84
2022-11-05T21:27:01.170Z,95879.41
2022-11-05T21:30:04.159Z,95885.41
2022-11-05T21:33:07.697Z,95887.47
2022-11-05T21:36:12.360Z,95879.25
2022-11-05T21:39:16.226Z,95882.22
2022-11-05T21:42:20.159Z,95877.00
2022-11-05T21:45:22.500Z,95876.94
2022-11-05T21:48:25.172Z,95878.94
2022-11-05T21:51:29.025Z,95874.78
2022-11-05T21:54:32.511Z,95875.97
2022-11-05T21:57:34.588Z,95878.94
2022-11-05T22:00:36.849Z,95877.53
2022-11-05T22:03:38.975Z,95873.22
2022-11-05T22:06:41.010Z,95868.22
2022-11-05T22:09:44.698Z,95877.03
2022-11-05T22:12:46.652Z,95864.81
2022-11-05T22:15:54.880Z,95858.69
2022-11-05T22:18:57.569Z,95861.81
2022-11-05T22:21:59.477Z,95865.91
2022-11-05T22:25:02.867Z,95865.50
2022-11-05T22:28:04.956Z,95856.66
2022-11-05T22:31:12.085Z,95858.91
2022-11-05T22:34:14.196Z,95868.53
2022-11-05T22:37:16.287Z,95869.66
2022-11-05T22:40:22.208Z,95870.09
2022-11-05T22:43:25.787Z,95870.59
2022-11-05T22:46:27.828Z,95875.22
2022-11-05T22:49:29.792Z,95875.91
2022-11-05T22:52:31.767Z,95874.34
2022-11-05T22:55:39.287Z,95874.34
2022-11-05T22:58:41.843Z,95882.47
2022-11-05T23:01:45.380Z,95878.16
2022-11-05T23:04:47.376Z,95879.03
2022-11-05T23:07:49.473Z,95873.56
2022-11-05T23:10:52.764Z,95871.94
2022-11-05T23:13:54.639Z,95870.38
2022-11-05T23:16:56.592Z,95868.09
2022-11-05T23:19:58.485Z,95864.56
2022-11-05T23:23:00.383Z,95866.56
2022-11-05T23:26:03.680Z,95872.94
2022-11-05T23:29:05.642Z,95868.38
2022-11-05T23:32:07.549Z,95872.69
2022-11-05T23:35:09.982Z,95872.69
2022-11-05T23:38:12.250Z,95864.66
2022-11-05T23:41:15.738Z,95868.19
2022-11-05T23:44:17.825Z,95860.91
2022-11-05T23:47:19.798Z,95862.91
2022-11-05T23:50:21.789Z,95863.88
2022-11-05T23:53:24.236Z,95866.63
2022-11-05T23:56:27.501Z,95861.69
2022-11-05T23:59:29.435Z,95865.06
